ac-web.org alexa rank chart, ac-web.org alexa rank daily changes

ac-web.org alexa rank chart, ac-web.org alexa rank daily changes

ac-web.org
Actual rank:
141 752

RANK HISTORY

Date Rank Diff
2017/12/13 141 752 +5 951
2017/12/12 135 801 +209
2017/12/11 135 592 +2 463
2017/12/10 133 129 +827
2017/12/09 132 302 +5 207
2017/12/08 127 095 +970
2017/12/07 126 125 +2 833
2017/12/06 123 292 +3 951
2017/12/05 119 341 -2 954
2017/12/04 122 295 -663
2017/12/03 122 958 -2 921
2017/12/02 125 879 -3 229
2017/12/01 129 108 +4 636
2017/11/30 124 472 +3 709
2017/11/29 120 763 -2 275
2017/11/28 123 038 +1 246
2017/11/27 121 792 +2 325
2017/11/26 119 467 +646
2017/11/25 118 821 +1 300
2017/11/24 117 521 +772
2017/11/23 116 749 +949
2017/11/22 115 800 -420
2017/11/21 116 220 +2 305
2017/11/20 113 915 -1 942
2017/11/19 115 857 +3 506
2017/11/18 112 351 +4 180
2017/11/17 108 171 +6 102
2017/11/16 102 069 +1 053
2017/11/15 101 016 +2 429
2017/11/14 98 587 +305
2017/11/13 98 282 -2 026
2017/11/12 100 308 +3 138
2017/11/11 97 170 -1 509
2017/11/10 98 679 +2 643
2017/11/09 96 036 +463
2017/11/08 95 573 +1 064
2017/11/07 94 509 +5 708
2017/11/06 88 801 +1 679
2017/11/05 87 122 +853
2017/11/04 86 269 -136
2017/11/03 86 405 -200
2017/11/02 86 605 +7 029
2017/11/01 79 576 +531
2017/10/31 79 045 -868
2017/10/30 79 913 -2 331
2017/10/29 82 244 -951
2017/10/28 83 195 +397
2017/10/27 82 798 -1 441
2017/10/26 84 239 +166
2017/10/25 84 073 -565
2017/10/24 84 638 +3 271
2017/10/23 81 367 +1 853
2017/10/22 79 514 +191
2017/10/21 79 323 +3 038
2017/10/20 76 285 -132
2017/10/19 76 417 +1 629
2017/10/18 74 788 -2 122
2017/10/17 76 910 -3 781
2017/10/16 80 691 -234
2017/10/14 80 925

WIDGET FOR YOUR SITE

DOMAINS WITH THE NEAREST RANK

Domain Rank
bestwestern.de 141 747
o-hr.cn 141 748
k1speed.com 141 749
videocluster.net 141 750
web-mar.com 141 751
ac-web.org 141 752
spruz.com 141 753
knshow.com 141 754
doctor73.ru 141 755
168girl.com 141 756
kinozed.com 141 757

DOMAINS WITH THE NEAREST RANK BY TLD .org

Domain Rank
jospt.org 141 622
you-get.org 141 664
prsa.org 141 676
openspf.org 141 689
prebid.org 141 711
ac-web.org 141 752
gafutures.org 141 808
eeslindia.org 141 810
sloganshub.org 141 831
ynhhs.org 141 837
btsabc.org 141 854